Time;durP1;ratioP1;P1;durP2;ratioP2;P2;SDS_P1;SDS_P2;PMS_P1;PMS_P2;Temp;Humidity;BMP_temperature;BMP_pressure;BME280_temperature;BME280_humidity;BME280_pressure;Samples;Min_cycle;Max_cycle;Signal;HPM_P1;HPM_P2
2021/06/01 00:00:44;;;;;;;1.40;1.30;;;14.20;69.50;;;;;;4970171;28;20612;-67
2021/06/01 00:03:11;;;;;;;1.73;1.40;;;14.20;69.80;;;;;;4973501;28;20305;-67
2021/06/01 00:05:37;;;;;;;1.60;1.50;;;14.20;70.30;;;;;;4972865;28;20308;-67
2021/06/01 00:08:04;;;;;;;1.30;1.20;;;14.20;70.90;;;;;;4973760;28;20212;-67
2021/06/01 00:10:32;;;;;;;1.60;1.30;;;14.10;71.40;;;;;;4970341;28;20298;-67
2021/06/01 00:12:59;;;;;;;1.17;1.07;;;14.10;71.80;;;;;;4972850;28;20206;-67
2021/06/01 00:15:25;;;;;;;1.23;1.13;;;14.20;72.10;;;;;;4969717;28;20206;-67
2021/06/01 00:17:52;;;;;;;1.67;0.90;;;14.20;72.50;;;;;;4962833;28;20622;-67
2021/06/01 00:20:18;;;;;;;1.67;1.03;;;14.20;72.80;;;;;;4970741;28;20230;-67
2021/06/01 00:22:44;;;;;;;1.30;1.20;;;14.20;73.90;;;;;;4973104;28;20224;-67
2021/06/01 00:25:12;;;;;;;1.10;1.00;;;14.20;73.60;;;;;;4968708;28;20352;-67
2021/06/01 00:27:39;;;;;;;1.70;1.40;;;14.20;74.00;;;;;;4973364;28;20607;-67
2021/06/01 00:30:07;;;;;;;1.40;0.90;;;14.30;74.40;;;;;;4970009;28;20662;-67
2021/06/01 00:32:33;;;;;;;1.03;1.00;;;14.30;74.50;;;;;;4972416;28;20285;-67
2021/06/01 00:35:00;;;;;;;1.03;0.93;;;14.30;74.90;;;;;;4971001;28;20273;-67
2021/06/01 00:37:27;;;;;;;1.10;1.03;;;14.30;75.00;;;;;;4973348;28;20458;-68
2021/06/01 00:39:53;;;;;;;1.27;1.17;;;14.30;75.20;;;;;;4971599;28;20544;-68
2021/06/01 00:42:20;;;;;;;1.20;1.10;;;14.30;76.20;;;;;;4972262;28;20203;-68
2021/06/01 00:44:50;;;;;;;1.03;1.03;;;14.30;75.80;;;;;;4971012;28;20292;-68
2021/06/01 00:47:16;;;;;;;1.40;1.10;;;14.30;76.20;;;;;;4972272;28;20692;-68
2021/06/01 00:49:43;;;;;;;1.10;1.00;;;14.20;76.50;;;;;;4972189;28;20298;-68
2021/06/01 00:52:12;;;;;;;1.10;1.00;;;14.20;76.70;;;;;;4973027;28;20268;-68
2021/06/01 00:54:38;;;;;;;1.00;1.00;;;14.20;76.80;;;;;;4971258;28;20199;-68
2021/06/01 00:57:06;;;;;;;1.67;1.40;;;14.20;77.80;;;;;;4972272;28;20211;-66
2021/06/01 00:59:33;;;;;;;1.57;1.30;;;14.10;77.50;;;;;;4969184;28;20260;-68
2021/06/01 01:02:02;;;;;;;2.53;1.57;;;14.10;77.90;;;;;;4965165;28;20223;-67
2021/06/01 01:04:28;;;;;;;1.63;1.53;;;14.00;78.60;;;;;;4972241;28;20215;-67
2021/06/01 01:07:13;;;;;;;1.40;1.30;;;14.00;79.30;;;;;;4972198;28;20218;-68
2021/06/01 01:09:43;;;;;;;1.70;1.60;;;14.00;79.70;;;;;;4968991;28;20572;-68
2021/06/01 01:12:15;;;;;;;1.40;1.30;;;13.90;81.00;;;;;;4971442;28;20247;-67
2021/06/01 01:14:46;;;;;;;3.60;1.40;;;13.90;81.70;;;;;;4961637;28;20270;-67
2021/06/01 01:17:20;;;;;;;5.93;1.60;;;13.90;83.30;;;;;;4971536;28;20199;-67
2021/06/01 01:20:13;;;;;;;1.97;1.60;;;13.80;84.60;;;;;;4969955;28;20201;-67
2021/06/01 01:22:43;;;;;;;1.60;1.50;;;13.80;86.00;;;;;;4971553;28;20838;-67
2021/06/01 01:25:17;;;;;;;0.90;0.90;;;13.70;87.10;;;;;;4969895;28;20222;-67
2021/06/01 01:28:02;;;;;;;2.17;1.47;;;13.70;87.80;;;;;;4972235;28;20567;-68
2021/06/01 01:30:36;;;;;;;2.20;1.80;;;13.70;89.70;;;;;;4961858;28;20256;-67
2021/06/01 01:33:17;;;;;;;1.27;1.27;;;13.70;90.40;;;;;;4971653;28;20204;-67
2021/06/01 01:35:45;;;;;;;1.47;1.10;;;13.60;90.70;;;;;;4971368;28;20194;-68
2021/06/01 01:38:14;;;;;;;1.30;1.20;;;13.60;91.20;;;;;;4971645;28;20617;-68
2021/06/01 01:40:43;;;;;;;1.37;1.27;;;13.60;91.50;;;;;;4969991;28;20698;-68
2021/06/01 01:43:14;;;;;;;1.27;1.07;;;13.60;91.80;;;;;;4970579;28;20276;-68
2021/06/01 01:45:44;;;;;;;2.30;1.20;;;13.60;92.00;;;;;;4969657;28;20687;-68
2021/06/01 01:51:12;;;;;;;1.00;1.00;;;13.70;92.50;;;;;;4967838;28;20912;-68
2021/06/01 01:53:42;;;;;;;1.60;0.90;;;13.70;92.60;;;;;;4971235;28;20198;-68
2021/06/01 01:56:09;;;;;;;1.10;1.10;;;13.70;92.60;;;;;;4971275;28;20571;-68
2021/06/01 01:58:36;;;;;;;1.43;1.13;;;13.80;92.50;;;;;;4971442;28;20220;-68
2021/06/01 02:01:03;;;;;;;0.93;0.80;;;13.80;92.70;;;;;;4967131;28;20316;-67
2021/06/01 02:03:31;;;;;;;0.90;0.80;;;13.80;92.20;;;;;;4971200;28;20208;-67
2021/06/01 02:05:58;;;;;;;1.50;1.00;;;13.90;92.20;;;;;;4970941;28;20212;-68
2021/06/01 02:08:25;;;;;;;0.90;0.90;;;13.90;92.00;;;;;;4970180;28;20228;-68
2021/06/01 02:10:53;;;;;;;0.70;0.70;;;13.90;92.10;;;;;;4966681;28;20607;-68
2021/06/01 02:13:20;;;;;;;0.70;0.70;;;13.90;91.60;;;;;;4970581;28;20205;-67
2021/06/01 02:15:47;;;;;;;1.43;0.80;;;14.00;91.50;;;;;;4969361;28;20233;-67
2021/06/01 02:18:13;;;;;;;1.30;1.00;;;14.00;91.40;;;;;;4971007;28;20204;-67
2021/06/01 02:20:43;;;;;;;1.13;0.70;;;14.10;91.60;;;;;;4969826;28;20272;-67
2021/06/01 02:26:03;;;;;;;1.00;0.90;;;14.10;91.10;;;;;;4968392;28;20201;-68
2021/06/01 02:28:39;;;;;;;0.70;0.70;;;14.10;91.00;;;;;;4970344;28;20293;-68
2021/06/01 02:31:09;;;;;;;0.60;0.60;;;14.10;91.00;;;;;;4967459;28;20275;-67
2021/06/01 02:33:37;;;;;;;0.70;0.70;;;14.20;91.00;;;;;;4970227;28;20203;-67
2021/06/01 02:36:07;;;;;;;1.00;0.70;;;14.20;90.90;;;;;;4970244;28;20621;-67
2021/06/01 02:38:35;;;;;;;0.83;0.83;;;14.20;91.00;;;;;;4970613;28;20202;-67
2021/06/01 02:41:03;;;;;;;0.90;0.90;;;14.10;91.10;;;;;;4969489;28;20224;-67
2021/06/01 02:43:31;;;;;;;0.90;0.90;;;14.10;91.30;;;;;;4969558;28;20308;-67
2021/06/01 02:45:58;;;;;;;2.30;0.80;;;14.10;91.50;;;;;;4968186;28;20273;-67
2021/06/01 02:48:25;;;;;;;2.50;1.40;;;14.10;91.70;;;;;;4970895;28;20202;-67
2021/06/01 02:50:56;;;;;;;1.30;1.20;;;14.10;92.10;;;;;;4969471;28;20205;-67
2021/06/01 02:53:25;;;;;;;1.43;1.33;;;14.10;92.80;;;;;;4970457;28;20212;-67
2021/06/01 02:55:52;;;;;;;1.70;1.20;;;14.00;92.80;;;;;;4970486;28;20528;-67
2021/06/01 02:58:19;;;;;;;1.30;1.20;;;14.00;93.20;;;;;;4970160;28;20201;-67
2021/06/01 03:00:46;;;;;;;1.53;1.10;;;14.00;93.90;;;;;;4959257;28;20219;-67
2021/06/01 03:03:14;;;;;;;1.90;1.27;;;13.90;94.30;;;;;;4969106;28;20626;-67
2021/06/01 03:05:41;;;;;;;2.63;1.00;;;13.90;94.30;;;;;;4969927;28;20217;-67
2021/06/01 03:08:18;;;;;;;2.20;1.30;;;13.90;94.50;;;;;;4964211;28;20813;-68
2021/06/01 03:10:46;;;;;;;1.10;1.07;;;13.80;94.80;;;;;;4969676;28;20238;-68
2021/06/01 03:13:12;;;;;;;3.17;1.60;;;13.80;95.00;;;;;;4968203;28;20645;-68
2021/06/01 03:15:39;;;;;;;1.60;1.10;;;13.80;95.10;;;;;;4967270;28;20632;-68
2021/06/01 03:18:05;;;;;;;2.27;1.30;;;13.80;95.40;;;;;;4969251;28;20320;-68
2021/06/01 03:20:32;;;;;;;2.00;0.90;;;13.90;95.80;;;;;;4968202;28;20312;-67
2021/06/01 03:22:58;;;;;;;1.30;1.20;;;13.80;95.90;;;;;;4969286;28;20210;-67
2021/06/01 03:25:25;;;;;;;2.00;1.07;;;13.80;96.20;;;;;;4968356;28;20599;-68
2021/06/01 03:27:52;;;;;;;2.27;1.33;;;13.80;96.20;;;;;;4969098;28;20274;-67
2021/06/01 03:30:19;;;;;;;1.27;1.00;;;13.80;96.50;;;;;;4968274;28;20691;-67
2021/06/01 03:32:46;;;;;;;1.10;1.10;;;13.80;96.70;;;;;;4968349;28;20693;-67
2021/06/01 03:35:12;;;;;;;1.30;1.20;;;13.90;96.90;;;;;;4968816;28;20234;-67
2021/06/01 03:37:39;;;;;;;1.53;1.43;;;13.90;96.90;;;;;;4969929;28;20284;-68
2021/06/01 03:40:06;;;;;;;1.40;1.30;;;13.90;96.90;;;;;;4977618;28;20209;-67
2021/06/01 03:42:33;;;;;;;1.23;1.13;;;13.90;96.90;;;;;;4968971;28;20648;-67
2021/06/01 03:45:01;;;;;;;0.90;0.90;;;14.00;97.00;;;;;;4967709;28;20205;-67
2021/06/01 03:47:27;;;;;;;0.73;0.73;;;14.00;97.10;;;;;;4967827;28;20209;-67
2021/06/01 03:49:55;;;;;;;2.03;0.97;;;14.10;97.10;;;;;;4965997;28;20320;-67
2021/06/01 03:52:21;;;;;;;1.20;1.10;;;14.10;97.10;;;;;;4969260;28;20282;-67
2021/06/01 03:54:48;;;;;;;1.47;1.00;;;14.20;97.20;;;;;;4969281;28;20282;-67
2021/06/01 03:57:14;;;;;;;1.27;1.03;;;14.20;97.20;;;;;;4970241;28;20199;-67
2021/06/01 03:59:41;;;;;;;0.90;0.83;;;14.30;97.20;;;;;;4967980;28;20202;-67
2021/06/01 04:02:09;;;;;;;0.87;0.87;;;14.40;97.20;;;;;;4966977;28;20230;-68
2021/06/01 04:04:36;;;;;;;1.30;1.20;;;14.50;97.20;;;;;;4968884;28;20289;-68
2021/06/01 04:07:03;;;;;;;1.60;1.20;;;14.50;97.20;;;;;;4969999;28;20648;-67
2021/06/01 04:09:29;;;;;;;1.30;1.20;;;14.60;97.20;;;;;;4969563;28;20204;-67
2021/06/01 04:11:56;;;;;;;1.20;1.10;;;14.70;97.10;;;;;;4969113;28;20237;-67
2021/06/01 04:14:23;;;;;;;1.37;1.13;;;14.70;97.10;;;;;;4968267;28;20257;-67
2021/06/01 04:16:50;;;;;;;1.10;1.00;;;14.70;97.20;;;;;;4968401;28;20253;-68
2021/06/01 04:19:18;;;;;;;1.53;1.10;;;14.80;97.20;;;;;;4969212;28;20278;-68
2021/06/01 04:21:44;;;;;;;2.03;1.50;;;14.90;97.20;;;;;;4969229;28;20286;-68
2021/06/01 04:24:11;;;;;;;1.30;1.20;;;14.90;97.20;;;;;;4969203;28;20281;-68
2021/06/01 04:26:38;;;;;;;1.40;1.30;;;15.00;97.20;;;;;;4966422;28;20219;-66
2021/06/01 04:29:05;;;;;;;1.20;1.10;;;15.10;97.20;;;;;;4968198;28;20202;-67
2021/06/01 04:31:31;;;;;;;1.30;1.20;;;15.20;97.10;;;;;;4967957;28;20233;-66
2021/06/01 04:33:58;;;;;;;1.20;1.10;;;15.30;97.00;;;;;;4968799;28;20202;-67
2021/06/01 04:36:26;;;;;;;1.30;1.20;;;15.40;96.90;;;;;;4969571;28;20230;-66
2021/06/01 04:38:52;;;;;;;1.50;1.20;;;15.40;96.80;;;;;;4967730;28;20688;-67
2021/06/01 04:41:19;;;;;;;1.93;1.00;;;15.40;96.70;;;;;;4966976;28;20234;-66
2021/06/01 04:43:45;;;;;;;1.47;1.00;;;15.50;96.50;;;;;;4970329;28;20289;-67
2021/06/01 04:46:12;;;;;;;1.30;1.10;;;15.50;96.40;;;;;;4970214;28;20230;-67
2021/06/01 04:48:38;;;;;;;1.20;1.10;;;15.60;96.40;;;;;;4971595;28;20249;-67
2021/06/01 04:51:05;;;;;;;1.10;1.00;;;15.60;96.40;;;;;;4972128;28;20210;-66
2021/06/01 04:53:33;;;;;;;1.83;1.43;;;15.70;96.30;;;;;;4972186;28;20346;-67
2021/06/01 04:55:59;;;;;;;1.90;1.30;;;15.70;96.30;;;;;;4972033;28;20215;-67
2021/06/01 04:58:26;;;;;;;1.30;1.20;;;15.70;96.20;;;;;;4971225;28;20294;-67
2021/06/01 05:00:52;;;;;;;2.10;1.03;;;15.80;96.20;;;;;;4967984;28;20231;-67
2021/06/01 05:03:19;;;;;;;2.73;0.97;;;15.80;96.00;;;;;;4971836;28;20203;-68
2021/06/01 05:05:45;;;;;;;1.07;1.03;;;15.90;95.80;;;;;;4971626;28;20209;-67
2021/06/01 05:08:12;;;;;;;0.90;0.90;;;15.90;95.70;;;;;;4972491;28;20291;-67
2021/06/01 05:10:40;;;;;;;1.27;1.10;;;15.90;95.60;;;;;;4971806;28;20287;-67
2021/06/01 05:13:06;;;;;;;1.40;1.30;;;16.00;95.80;;;;;;4970859;28;20303;-68
2021/06/01 05:15:33;;;;;;;1.20;1.10;;;16.00;95.40;;;;;;4968649;28;20204;-68
2021/06/01 05:17:59;;;;;;;2.27;1.13;;;16.10;95.30;;;;;;4972871;28;20284;-68
2021/06/01 05:20:26;;;;;;;1.70;1.13;;;16.10;95.20;;;;;;4971016;28;20621;-67
2021/06/01 05:22:52;;;;;;;1.20;1.20;;;16.20;95.00;;;;;;4972244;28;20554;-68
2021/06/01 05:25:19;;;;;;;1.33;1.10;;;16.20;94.90;;;;;;4971309;28;20192;-67
2021/06/01 05:27:47;;;;;;;1.30;1.20;;;16.30;94.80;;;;;;4971244;28;20306;-68
2021/06/01 05:30:20;;;;;;;0.93;0.93;;;16.40;94.70;;;;;;4969664;28;20208;-66
2021/06/01 05:35:38;;;;;;;1.87;1.17;;;16.40;94.60;;;;;;4930079;29;20210;-67
2021/06/01 05:38:04;;;;;;;1.40;1.30;;;16.50;94.90;;;;;;4931135;29;20241;-67
2021/06/01 05:40:31;;;;;;;1.30;1.20;;;16.50;94.70;;;;;;4929496;29;20240;-67
2021/06/01 05:42:58;;;;;;;1.30;1.20;;;16.60;94.70;;;;;;4914359;29;20308;-67
2021/06/01 05:45:25;;;;;;;1.20;0.90;;;16.60;94.70;;;;;;4928954;29;20754;-67
2021/06/01 05:47:52;;;;;;;1.30;1.20;;;16.70;94.70;;;;;;4930445;29;20296;-67
2021/06/01 05:50:18;;;;;;;1.30;1.17;;;16.80;94.60;;;;;;4930295;29;20237;-67
2021/06/01 05:52:45;;;;;;;3.00;1.30;;;16.90;94.50;;;;;;4930731;29;20290;-67
2021/06/01 05:55:12;;;;;;;2.00;1.37;;;17.00;94.40;;;;;;4928740;29;20333;-67
2021/06/01 05:57:38;;;;;;;2.73;1.40;;;17.10;94.40;;;;;;4930755;29;20210;-68
2021/06/01 06:00:09;;;;;;;2.10;1.30;;;17.30;94.30;;;;;;4927686;29;20218;-66
2021/06/01 06:02:36;;;;;;;1.40;1.30;;;17.50;94.10;;;;;;4929832;29;20240;-66
2021/06/01 06:05:04;;;;;;;1.37;1.27;;;17.70;94.30;;;;;;4928966;29;20768;-68
2021/06/01 06:07:30;;;;;;;1.97;1.50;;;17.80;93.70;;;;;;4929887;29;20234;-67
2021/06/01 06:09:57;;;;;;;2.07;1.50;;;17.90;93.60;;;;;;4929841;29;20206;-67
2021/06/01 06:12:23;;;;;;;1.50;1.40;;;18.00;93.50;;;;;;4949066;28;20298;-67
2021/06/01 06:14:50;;;;;;;1.60;1.47;;;18.20;93.30;;;;;;4969144;28;20202;-68
2021/06/01 06:17:33;;;;;;;4.90;1.40;;;18.30;93.10;;;;;;4970127;28;20554;-67
2021/06/01 06:20:00;;;;;;;2.07;1.20;;;18.40;92.90;;;;;;4963846;28;20217;-67
2021/06/01 06:22:27;;;;;;;2.60;1.40;;;18.50;92.80;;;;;;4968770;28;20303;-67
2021/06/01 06:24:54;;;;;;;2.03;1.47;;;18.60;92.70;;;;;;4963861;28;20206;-68
2021/06/01 06:27:21;;;;;;;5.35;1.73;;;18.60;92.80;;;;;;4963689;28;20292;-68
2021/06/01 06:29:47;;;;;;;2.80;2.03;;;18.80;92.30;;;;;;4964752;28;20690;-68
2021/06/01 06:32:14;;;;;;;4.13;1.80;;;19.20;92.10;;;;;;4962266;28;20680;-68
2021/06/01 06:34:44;;;;;;;3.05;1.95;;;20.00;91.00;;;;;;4965423;28;20223;-68
2021/06/01 06:37:10;;;;;;;5.53;2.00;;;21.70;88.10;;;;;;4969394;28;20283;-69
2021/06/01 06:39:37;;;;;;;8.68;2.17;;;23.70;80.50;;;;;;4967972;28;20283;-68
2021/06/01 06:42:04;;;;;;;7.18;2.97;;;24.50;73.90;;;;;;4967878;28;20316;-68
2021/06/01 06:44:31;;;;;;;5.95;2.65;;;25.00;70.40;;;;;;4965242;28;20578;-69
2021/06/01 06:47:17;;;;;;;8.85;2.50;;;26.60;66.20;;;;;;4968383;28;20207;-69
2021/06/01 06:49:45;;;;;;;4.80;2.55;;;28.60;59.50;;;;;;4963198;28;20208;-68
2021/06/01 06:52:15;;;;;;;9.80;2.63;;;29.80;54.70;;;;;;4967932;28;20292;-68
2021/06/01 06:54:41;;;;;;;4.53;2.40;;;30.30;52.20;;;;;;4968307;28;20298;-68
2021/06/01 06:57:09;;;;;;;7.22;2.20;;;30.50;50.90;;;;;;4968732;28;20279;-68
2021/06/01 06:59:35;;;;;;;6.45;2.40;;;31.00;49.70;;;;;;4965479;28;20296;-68
2021/06/01 07:02:02;;;;;;;4.85;2.40;;;31.30;48.70;;;;;;4964543;28;20224;-68
2021/06/01 07:04:29;;;;;;;9.45;2.90;;;31.50;47.90;;;;;;4967062;28;20270;-68
2021/06/01 07:06:58;;;;;;;4.10;2.25;;;30.80;47.40;;;;;;4968139;28;20279;-68
2021/06/01 07:09:25;;;;;;;8.35;2.60;;;29.70;48.10;;;;;;4967348;28;20279;-68
2021/06/01 07:11:52;;;;;;;5.38;2.67;;;28.70;49.00;;;;;;4968247;28;20317;-68
2021/06/01 07:14:40;;;;;;;7.78;2.58;;;27.60;50.30;;;;;;4966216;28;20207;-68
2021/06/01 07:17:07;;;;;;;18.65;3.50;;;26.80;52.00;;;;;;4967066;28;20312;-68
2021/06/01 07:19:34;;;;;;;14.90;3.42;;;26.30;53.00;;;;;;4968712;28;20196;-68
2021/06/01 07:22:02;;;;;;;4.25;2.67;;;26.10;53.60;;;;;;4966309;28;20220;-68
2021/06/01 07:24:28;;;;;;;7.80;2.90;;;25.70;54.30;;;;;;4965911;28;20615;-67
2021/06/01 07:26:55;;;;;;;7.25;2.65;;;25.20;55.10;;;;;;4968510;28;20220;-68
2021/06/01 07:29:21;;;;;;;7.85;2.53;;;24.80;56.70;;;;;;4965449;28;20291;-68
2021/06/01 07:31:50;;;;;;;7.05;3.05;;;24.50;57.10;;;;;;4966999;28;20196;-68
2021/06/01 07:34:17;;;;;;;11.52;3.63;;;24.20;57.90;;;;;;4967564;28;20196;-68
2021/06/01 07:36:44;;;;;;;7.38;3.40;;;24.00;58.70;;;;;;4967455;28;20698;-68
2021/06/01 07:39:12;;;;;;;3.53;2.30;;;23.80;59.40;;;;;;4965423;28;20631;-68
2021/06/01 07:41:38;;;;;;;4.45;2.30;;;23.70;60.00;;;;;;4965758;28;20662;-68
2021/06/01 07:44:06;;;;;;;6.90;2.72;;;23.70;60.60;;;;;;4966410;28;20208;-67
2021/06/01 07:46:33;;;;;;;6.22;2.80;;;23.80;61.30;;;;;;4966275;28;20309;-68
2021/06/01 07:49:00;;;;;;;7.90;3.40;;;23.90;61.70;;;;;;4964799;28;20302;-68
2021/06/01 07:51:31;;;;;;;4.35;2.58;;;24.00;62.00;;;;;;4967984;28;20200;-70
2021/06/01 07:53:58;;;;;;;6.90;3.13;;;24.10;62.00;;;;;;4965931;28;20214;-69
2021/06/01 07:56:26;;;;;;;3.67;2.63;;;24.10;62.10;;;;;;4964056;28;20239;-66
2021/06/01 07:58:53;;;;;;;6.45;3.10;;;24.00;63.20;;;;;;4967152;28;20204;-70
2021/06/01 08:01:20;;;;;;;8.68;3.72;;;24.00;63.00;;;;;;4965166;28;20239;-69
2021/06/01 08:03:47;;;;;;;9.38;3.60;;;23.80;63.40;;;;;;4962993;28;20721;-68
2021/06/01 08:06:13;;;;;;;10.40;3.22;;;23.70;64.30;;;;;;4965700;28;20204;-69
2021/06/01 08:08:40;;;;;;;13.30;3.80;;;23.50;65.50;;;;;;4963981;28;20229;-68
2021/06/01 08:11:07;;;;;;;4.97;2.80;;;23.50;66.50;;;;;;4966935;28;20228;-67
2021/06/01 08:13:35;;;;;;;13.32;3.47;;;23.40;66.90;;;;;;4961360;28;20216;-69
2021/06/01 08:16:03;;;;;;;11.57;3.38;;;23.40;68.20;;;;;;4963887;28;20311;-70
2021/06/01 08:18:33;;;;;;;9.45;3.50;;;23.30;68.10;;;;;;4968533;28;20216;-69
2021/06/01 08:21:05;;;;;;;8.27;3.15;;;23.20;68.90;;;;;;4970549;28;20216;-68
2021/06/01 08:23:32;;;;;;;8.60;3.08;;;23.00;69.60;;;;;;4969335;28;20240;-69
2021/06/01 08:25:59;;;;;;;5.75;2.55;;;23.00;70.60;;;;;;4968074;28;20702;-70
2021/06/01 08:28:25;;;;;;;7.55;3.13;;;23.00;71.10;;;;;;4970770;28;20192;-68
2021/06/01 08:30:53;;;;;;;6.65;3.10;;;23.10;71.60;;;;;;4968610;28;20208;-70
2021/06/01 08:33:20;;;;;;;6.63;3.10;;;23.00;71.70;;;;;;4984618;28;20686;-69
2021/06/01 08:35:47;;;;;;;4.22;2.67;;;22.90;72.10;;;;;;4970228;28;20559;-67
2021/06/01 08:38:16;;;;;;;8.48;3.13;;;22.80;72.40;;;;;;4971159;28;20661;-68
2021/06/01 08:40:48;;;;;;;6.78;2.97;;;22.70;72.20;;;;;;4970421;28;20232;-68
2021/06/01 08:43:20;;;;;;;7.20;3.00;;;22.40;72.40;;;;;;4970496;28;20243;-68
2021/06/01 08:45:51;;;;;;;4.50;2.55;;;22.20;73.00;;;;;;4967648;28;20279;-68
2021/06/01 08:48:20;;;;;;;3.88;2.63;;;22.10;73.40;;;;;;4971080;28;20205;-69
2021/06/01 08:50:48;;;;;;;10.43;3.60;;;21.90;73.80;;;;;;4969302;28;20266;-69
2021/06/01 08:53:15;;;;;;;4.88;3.28;;;21.80;74.30;;;;;;4971735;28;20745;-68
2021/06/01 08:55:42;;;;;;;3.53;2.78;;;21.70;74.60;;;;;;4970338;28;20280;-67
2021/06/01 08:58:13;;;;;;;2.92;2.35;;;21.70;75.00;;;;;;4960590;28;20303;-67
2021/06/01 09:00:40;;;;;;;6.80;3.15;;;21.70;75.40;;;;;;4960050;28;20252;-68
2021/06/01 09:03:09;;;;;;;11.27;3.58;;;21.70;75.60;;;;;;4970653;28;20223;-67
2021/06/01 09:05:38;;;;;;;8.35;3.13;;;21.80;75.70;;;;;;4965714;28;20228;-67
2021/06/01 09:08:09;;;;;;;8.38;3.10;;;21.80;75.40;;;;;;4966290;28;20213;-67
2021/06/01 09:10:48;;;;;;;7.97;3.33;;;21.90;75.30;;;;;;4969222;28;20197;-67
2021/06/01 09:21:39;;;;;;;6.97;3.15;;;22.50;73.60;;;;;;4969298;28;20505;-68
2021/06/01 09:24:06;;;;;;;5.38;3.17;;;22.90;72.00;;;;;;4969878;28;20211;-68
2021/06/01 09:26:46;;;;;;;8.25;3.17;;;23.00;70.60;;;;;;4970250;28;20667;-67
2021/06/01 09:29:13;;;;;;;10.18;3.22;;;23.00;70.20;;;;;;4968128;28;20209;-67
2021/06/01 09:31:40;;;;;;;12.57;3.55;;;22.90;69.20;;;;;;4967212;28;20199;-67
2021/06/01 09:34:07;;;;;;;6.47;3.08;;;22.70;68.70;;;;;;4970271;28;20204;-67
2021/06/01 09:36:35;;;;;;;4.43;3.00;;;22.60;69.00;;;;;;4969292;28;20548;-67
2021/06/01 09:39:07;;;;;;;8.90;3.28;;;22.60;69.40;;;;;;4969281;28;20287;-67
2021/06/01 09:41:34;;;;;;;6.63;3.10;;;22.80;69.80;;;;;;4968803;28;20240;-68
2021/06/01 09:44:02;;;;;;;5.40;2.85;;;23.00;69.60;;;;;;4968801;28;20307;-68
2021/06/01 09:46:30;;;;;;;4.75;3.10;;;23.30;68.90;;;;;;4966203;28;20559;-66
2021/06/01 09:49:20;;;;;;;6.75;3.40;;;23.40;67.80;;;;;;4965484;28;20356;-68
2021/06/01 09:51:52;;;;;;;3.92;3.35;;;23.50;67.00;;;;;;4968195;28;20247;-67
2021/06/01 09:54:28;;;;;;;6.75;3.65;;;23.80;66.20;;;;;;4969362;28;20204;-67
2021/06/01 09:56:55;;;;;;;3.67;3.30;;;24.00;64.80;;;;;;4966379;28;20626;-67
2021/06/01 09:59:21;;;;;;;9.20;3.35;;;24.20;63.90;;;;;;4966568;28;20203;-68
2021/06/01 10:01:48;;;;;;;10.07;3.28;;;24.40;62.80;;;;;;4969284;28;20304;-66
2021/06/01 10:04:23;;;;;;;7.63;4.05;;;24.50;62.00;;;;;;4965554;28;20201;-67
2021/06/01 10:06:51;;;;;;;10.05;3.40;;;24.40;61.00;;;;;;4969245;28;20315;-73
2021/06/01 10:09:18;;;;;;;11.45;3.35;;;24.30;62.20;;;;;;4956186;28;20252;-72
2021/06/01 10:11:56;;;;;;;7.53;3.53;;;24.30;63.60;;;;;;4967502;28;20224;-73
2021/06/01 10:14:23;;;;;;;7.82;3.53;;;24.50;63.00;;;;;;4967223;28;20634;-73
2021/06/01 10:16:50;;;;;;;8.32;3.33;;;24.70;62.40;;;;;;4963079;28;20199;-73
2021/06/01 10:19:17;;;;;;;12.60;3.33;;;24.80;61.40;;;;;;4967785;28;20216;-73
2021/06/01 10:21:45;;;;;;;9.35;3.35;;;24.80;60.90;;;;;;4967809;28;20895;-75
2021/06/01 10:24:14;;;;;;;10.68;3.15;;;24.80;60.70;;;;;;4968631;28;20573;-75
2021/06/01 10:26:42;;;;;;;4.80;2.92;;;24.80;60.00;;;;;;4969313;28;20235;-71
2021/06/01 10:29:08;;;;;;;8.45;3.30;;;24.80;59.70;;;;;;4965038;28;20746;-71
2021/06/01 10:31:36;;;;;;;4.65;2.60;;;24.70;59.50;;;;;;4963854;28;20197;-72
2021/06/01 10:34:09;;;;;;;4.68;2.42;;;24.90;59.70;;;;;;4969079;28;20225;-71
2021/06/01 10:51:00;;;;;;;5.00;2.10;;;24.30;59.40;;;;;;4907311;29;20292;-70
2021/06/01 10:53:38;;;;;;;7.80;3.00;;;24.10;60.20;;;;;;4909836;29;20204;-70
2021/06/01 10:56:06;;;;;;;5.75;2.88;;;24.00;60.00;;;;;;4907865;29;20221;-71
2021/06/01 10:59:07;;;;;;;4.75;2.50;;;23.70;60.10;;;;;;4906286;29;20237;-71
2021/06/01 11:01:56;;;;;;;9.77;2.88;;;23.50;60.20;;;;;;4827752;29;20236;-71
2021/06/01 11:04:25;;;;;;;6.13;3.13;;;23.30;60.70;;;;;;4832046;29;20692;-67
2021/06/01 11:10:04;;;;;;;6.47;2.50;;;23.20;61.00;;;;;;4827160;29;20695;-67
2021/06/01 11:12:43;;;;;;;6.35;1.98;;;23.10;60.70;;;;;;4834225;29;20286;-66
2021/06/01 11:15:33;;;;;;;6.97;2.97;;;23.10;60.40;;;;;;4831349;29;20212;-68
2021/06/01 11:18:20;;;;;;;7.15;2.67;;;23.20;61.10;;;;;;4829548;29;20209;-68
2021/06/01 11:21:33;;;;;;;2.50;2.30;;;23.20;59.90;;;;;;4841286;29;20546;-68
2021/06/01 11:33:19;;;;;;;3.25;2.00;;;22.50;60.70;;;;;;4908189;29;20214;-67
2021/06/01 11:35:53;;;;;;;15.35;2.95;;;22.40;61.60;;;;;;4906585;29;20194;-68
2021/06/01 11:38:23;;;;;;;7.88;3.03;;;22.20;62.50;;;;;;4937852;28;20295;-67
2021/06/01 11:40:59;;;;;;;12.95;2.67;;;22.20;63.60;;;;;;4966614;28;20209;-67
2021/06/01 11:43:25;;;;;;;2.90;2.22;;;22.20;63.80;;;;;;4965972;28;20216;-69
2021/06/01 11:46:01;;;;;;;6.55;2.30;;;22.10;63.60;;;;;;4963922;28;20200;-68
2021/06/01 11:51:13;;;;;;;9.85;2.60;;;22.20;64.00;;;;;;4967116;28;20287;-69
2021/06/01 11:53:48;;;;;;;4.97;2.40;;;21.90;63.40;;;;;;4969653;28;20220;-69
2021/06/01 11:56:18;;;;;;;3.85;2.05;;;21.80;64.30;;;;;;4972482;28;20230;-70
2021/06/01 12:04:51;;;;;;;6.90;2.47;;;22.10;65.30;;;;;;4970320;28;20276;-69
2021/06/01 12:13:07;;;;;;;8.10;2.60;;;22.00;66.70;;;;;;4970230;28;20697;-69
2021/06/01 12:18:26;;;;;;;3.60;2.22;;;21.70;69.20;;;;;;4970131;28;20633;-69
2021/06/01 12:20:53;;;;;;;3.53;2.30;;;21.80;70.10;;;;;;4969566;28;20204;-68
2021/06/01 12:23:34;;;;;;;7.32;2.40;;;22.00;71.50;;;;;;4970984;28;20235;-69
2021/06/01 12:26:05;;;;;;;4.85;2.33;;;22.20;70.40;;;;;;4971584;28;20192;-70
2021/06/01 12:31:18;;;;;;;8.48;3.08;;;22.10;70.50;;;;;;4966009;28;20200;-68
2021/06/01 12:33:59;;;;;;;2.33;2.10;;;21.90;71.00;;;;;;4971998;28;20193;-67
2021/06/01 12:42:34;;;;;;;5.68;2.58;;;21.50;71.60;;;;;;4966832;28;20275;-68
2021/06/01 12:45:02;;;;;;;4.50;2.50;;;21.20;72.50;;;;;;4965553;28;20228;-69
2021/06/01 13:05:15;;;;;;;4.55;2.97;;;21.00;74.60;;;;;;4970181;28;20214;-69
2021/06/01 13:19:24;;;;;;;2.45;1.52;;;19.50;82.30;;;;;;4923612;29;20860;-69
2021/06/01 13:21:55;;;;;;;3.53;1.70;;;19.30;84.90;;;;;;4927179;29;20254;-68
2021/06/01 13:30:33;;;;;;;7.28;2.00;;;18.90;90.90;;;;;;4931662;29;20219;-68
2021/06/01 13:38:35;;;;;;;4.57;2.03;;;18.60;93.50;;;;;;4929189;29;20237;-69
2021/06/01 13:46:47;;;;;;;9.82;1.90;;;18.40;95.60;;;;;;4935502;28;20219;-68
2021/06/01 13:49:18;;;;;;;5.05;2.15;;;18.40;95.70;;;;;;4965712;28;20713;-69
2021/06/01 13:57:28;;;;;;;2.88;1.70;;;18.20;95.40;;;;;;4966757;28;20265;-68
2021/06/01 14:00:06;;;;;;;5.17;1.87;;;18.10;94.70;;;;;;4955874;28;20528;-67
2021/06/01 14:11:22;;;;;;;6.03;1.63;;;18.10;95.10;;;;;;4967792;28;20239;-66
2021/06/01 14:19:45;;;;;;;6.85;1.50;;;18.10;95.90;;;;;;4962886;28;20692;-67
2021/06/01 14:36:33;;;;;;;2.03;1.00;;;17.90;97.10;;;;;;4927257;29;20624;-67
2021/06/01 14:39:20;;;;;;;6.82;1.90;;;17.90;97.30;;;;;;4929255;29;20236;-68
2021/06/01 15:29:29;;;;;;;2.23;1.40;;;17.30;99.90;;;;;;4794630;29;20380;-68
2021/06/01 15:32:00;;;;;;;6.33;1.40;;;17.40;99.90;;;;;;4795413;29;20230;-68
2021/06/01 15:48:37;;;;;;;2.20;1.10;;;17.30;99.90;;;;;;4864029;29;20213;-68
2021/06/01 15:51:40;;;;;;;2.20;1.23;;;17.20;99.90;;;;;;4926323;29;20306;-67
2021/06/01 15:54:15;;;;;;;5.30;1.37;;;17.20;99.90;;;;;;4925205;29;20266;-67
2021/06/01 16:29:56;;;;;;;2.23;1.80;;;16.50;99.90;;;;;;4958161;28;20236;-67
2021/06/01 16:43:33;;;;;;;2.93;1.67;;;16.50;99.90;;;;;;4910708;29;20270;-67
2021/06/01 17:05:27;;;;;;;2.40;1.40;;;16.40;99.90;;;;;;4909969;29;20269;-67
2021/06/01 17:08:05;;;;;;;2.10;1.27;;;16.40;99.90;;;;;;4912645;29;20242;-68
2021/06/01 17:13:17;;;;;;;3.93;1.40;;;16.40;99.90;;;;;;4958562;28;20208;-67
2021/06/01 17:15:53;;;;;;;3.93;1.30;;;16.40;99.90;;;;;;4958956;28;20575;-68
2021/06/01 17:18:33;;;;;;;2.50;1.43;;;16.30;99.90;;;;;;4968481;28;20287;-68
2021/06/01 17:23:57;;;;;;;2.27;1.53;;;16.30;99.90;;;;;;4949817;29;20252;-69
2021/06/01 17:32:16;;;;;;;1.40;1.23;;;16.10;99.90;;;;;;4944509;29;20198;-68
2021/06/01 17:34:47;;;;;;;3.50;1.07;;;16.00;99.90;;;;;;4949516;29;20211;-68
2021/06/01 17:37:14;;;;;;;1.77;1.17;;;16.00;99.90;;;;;;4949581;28;20267;-68
2021/06/01 17:39:42;;;;;;;2.13;1.27;;;16.00;99.90;;;;;;4949389;28;20233;-68
2021/06/01 17:42:15;;;;;;;1.30;1.20;;;15.90;99.90;;;;;;4949257;29;20221;-68
2021/06/01 17:44:42;;;;;;;1.67;1.20;;;15.90;99.90;;;;;;4948250;28;20290;-68